createdAt,value
2023-05-18T00:02:10.428Z,99.90
2023-05-18T00:06:12.182Z,99.90
2023-05-18T00:10:13.920Z,99.90
2023-05-18T00:14:15.688Z,99.90
2023-05-18T00:18:17.389Z,99.90
2023-05-18T00:22:19.298Z,99.90
2023-05-18T00:26:21.001Z,99.90
2023-05-18T00:30:25.469Z,99.90
2023-05-18T00:34:27.208Z,99.90
2023-05-18T00:38:28.870Z,99.90
2023-05-18T00:42:30.644Z,99.90
2023-05-18T00:46:32.749Z,99.90
2023-05-18T00:50:35.280Z,99.90
2023-05-18T00:54:37.061Z,99.90
2023-05-18T00:58:39.950Z,99.90
2023-05-18T01:02:46.107Z,99.90
2023-05-18T01:06:48.322Z,99.90
2023-05-18T01:10:56.060Z,99.90
2023-05-18T01:15:10.309Z,99.90
2023-05-18T01:19:42.116Z,99.90
2023-05-18T01:24:11.140Z,99.90
2023-05-18T01:28:17.085Z,99.90
2023-05-18T01:32:22.367Z,99.90
2023-05-18T01:36:24.207Z,99.90
2023-05-18T01:40:28.082Z,99.90
2023-05-18T01:44:50.424Z,99.90
2023-05-18T01:48:56.735Z,99.90
2023-05-18T01:53:05.015Z,99.90
2023-05-18T01:57:08.221Z,99.90
2023-05-18T02:01:10.365Z,99.90
2023-05-18T02:05:15.491Z,99.90
2023-05-18T02:09:17.194Z,99.90
2023-05-18T02:13:18.874Z,99.90
2023-05-18T02:17:21.915Z,99.90
2023-05-18T02:21:23.613Z,99.90
2023-05-18T02:25:25.915Z,99.90
2023-05-18T02:29:27.857Z,99.90
2023-05-18T02:33:39.560Z,99.90
2023-05-18T02:37:44.027Z,99.90
2023-05-18T02:41:45.755Z,99.90
2023-05-18T02:45:47.466Z,99.90
2023-05-18T02:49:49.155Z,99.90
2023-05-18T02:53:51.487Z,99.90
2023-05-18T02:57:57.487Z,99.90
2023-05-18T03:01:59.251Z,99.90
2023-05-18T03:06:02.510Z,99.90
2023-05-18T03:10:04.725Z,99.90
2023-05-18T03:14:06.479Z,99.90
2023-05-18T03:18:08.202Z,99.90
2023-05-18T03:22:10.001Z,99.90
2023-05-18T03:26:12.284Z,99.90
2023-05-18T03:30:14.109Z,99.90
2023-05-18T03:34:16.008Z,99.90
2023-05-18T03:38:17.677Z,99.90
2023-05-18T03:42:19.402Z,99.90
2023-05-18T03:46:21.162Z,99.90
2023-05-18T03:50:22.981Z,99.90
2023-05-18T03:54:24.754Z,99.90
2023-05-18T03:58:27.382Z,99.90
2023-05-18T04:02:29.244Z,99.90
2023-05-18T04:06:31.050Z,99.90
2023-05-18T04:10:32.709Z,99.90
2023-05-18T04:14:35.091Z,99.90
2023-05-18T04:18:37.278Z,99.90
2023-05-18T04:22:43.494Z,99.90
2023-05-18T04:26:46.424Z,99.90
2023-05-18T04:30:48.170Z,99.90
2023-05-18T04:34:50.454Z,99.90
2023-05-18T04:38:52.751Z,99.90
2023-05-18T04:42:54.494Z,99.90
2023-05-18T04:46:56.809Z,99.90
2023-05-18T04:50:58.546Z,99.90
2023-05-18T04:55:00.583Z,99.90
2023-05-18T04:59:02.574Z,99.90
2023-05-18T05:03:04.623Z,99.90
2023-05-18T05:07:06.575Z,99.90
2023-05-18T05:11:08.341Z,99.90
2023-05-18T05:15:10.590Z,99.90
2023-05-18T05:19:12.393Z,99.90
2023-05-18T05:23:14.258Z,99.90
2023-05-18T05:27:16.049Z,99.90
2023-05-18T05:31:17.783Z,99.90
2023-05-18T05:35:19.611Z,99.90
2023-05-18T05:39:21.369Z,99.90
2023-05-18T05:43:23.089Z,99.90
2023-05-18T05:47:25.046Z,99.90
2023-05-18T05:51:26.878Z,99.90
2023-05-18T05:55:28.783Z,99.90
2023-05-18T05:59:30.934Z,99.90
2023-05-18T06:03:35.171Z,99.90
2023-05-18T06:07:38.359Z,99.90
2023-05-18T06:11:40.186Z,99.90
2023-05-18T06:15:41.961Z,99.90
2023-05-18T06:19:43.660Z,99.90
2023-05-18T06:23:45.395Z,99.90
2023-05-18T06:27:47.068Z,99.90
2023-05-18T06:31:48.928Z,99.90
2023-05-18T06:35:51.402Z,99.90
2023-05-18T06:39:53.117Z,99.90
2023-05-18T06:43:54.794Z,99.90
2023-05-18T06:47:56.689Z,99.90
2023-05-18T06:51:58.449Z,99.90
2023-05-18T06:56:00.591Z,99.90
2023-05-18T07:00:02.455Z,99.90
2023-05-18T07:04:04.383Z,99.90
2023-05-18T07:08:07.090Z,99.90
2023-05-18T07:12:09.401Z,99.90
2023-05-18T07:16:11.515Z,99.90
2023-05-18T07:20:13.328Z,99.90
2023-05-18T07:24:15.507Z,99.90
2023-05-18T07:28:17.391Z,99.90
2023-05-18T07:32:19.218Z,99.90
2023-05-18T07:36:21.812Z,99.90
2023-05-18T07:40:23.554Z,99.90
2023-05-18T07:44:25.494Z,99.90
2023-05-18T07:48:27.207Z,99.90
2023-05-18T07:52:28.993Z,99.90
2023-05-18T07:56:31.550Z,99.90
2023-05-18T08:00:34.082Z,99.90
2023-05-18T08:04:35.957Z,99.90
2023-05-18T08:08:37.888Z,99.90
2023-05-18T08:12:39.688Z,99.90
2023-05-18T08:16:41.478Z,99.90
2023-05-18T08:20:43.807Z,99.90
2023-05-18T08:24:45.483Z,99.90
2023-05-18T08:28:48.696Z,99.90
2023-05-18T08:32:50.500Z,99.90
2023-05-18T08:36:52.475Z,99.90
2023-05-18T08:41:26.524Z,99.90
2023-05-18T08:46:03.540Z,99.90
2023-05-18T08:50:06.178Z,99.90
2023-05-18T08:54:11.581Z,99.90
2023-05-18T08:58:16.556Z,99.90
2023-05-18T09:02:18.628Z,99.90
2023-05-18T09:06:23.973Z,99.90
2023-05-18T09:10:26.320Z,99.90
2023-05-18T09:14:28.905Z,99.90
2023-05-18T09:18:30.676Z,98.80
2023-05-18T09:22:33.471Z,94.90
2023-05-18T09:26:35.429Z,98.60
2023-05-18T09:30:44.137Z,96.70
2023-05-18T09:34:46.023Z,92.40
2023-05-18T09:38:47.747Z,95.90
2023-05-18T09:42:49.648Z,93.20
2023-05-18T09:46:56.379Z,93.40
2023-05-18T09:50:59.834Z,98.90
2023-05-18T09:55:01.687Z,99.90
2023-05-18T09:59:14.883Z,97.10
2023-05-18T10:03:17.818Z,96.50
2023-05-18T10:07:19.622Z,95.30
2023-05-18T10:11:21.957Z,92.90
2023-05-18T10:15:24.383Z,94.00
2023-05-18T10:19:26.918Z,96.20
2023-05-18T10:23:32.219Z,92.10
2023-05-18T10:27:36.356Z,93.30
2023-05-18T10:31:38.782Z,95.20
2023-05-18T10:35:41.119Z,92.30
2023-05-18T10:39:45.542Z,93.40
2023-05-18T10:43:48.921Z,92.10
2023-05-18T10:47:54.677Z,90.40
2023-05-18T10:51:59.274Z,92.50
2023-05-18T10:56:01.705Z,90.00
2023-05-18T11:00:07.610Z,92.10
2023-05-18T11:04:09.586Z,90.60
2023-05-18T11:08:11.339Z,92.70
2023-05-18T11:12:14.104Z,88.50
2023-05-18T11:16:17.166Z,90.20
2023-05-18T11:20:19.167Z,91.20
2023-05-18T11:24:22.842Z,91.50
2023-05-18T11:28:24.684Z,91.80
2023-05-18T11:32:32.943Z,90.50
2023-05-18T11:36:45.054Z,91.40
2023-05-18T11:40:48.822Z,90.70
2023-05-18T11:44:56.904Z,87.80
2023-05-18T11:49:09.002Z,85.80
2023-05-18T11:53:16.275Z,87.40
2023-05-18T11:57:18.805Z,83.80
2023-05-18T12:01:23.574Z,84.00
2023-05-18T12:05:30.194Z,81.90
2023-05-18T12:09:32.266Z,81.60
2023-05-18T12:13:34.372Z,76.30
2023-05-18T12:17:47.422Z,78.30
2023-05-18T12:21:49.343Z,77.80
2023-05-18T12:25:51.755Z,79.70
2023-05-18T12:29:54.730Z,82.00
2023-05-18T12:33:58.979Z,76.00
2023-05-18T12:38:01.659Z,77.20
2023-05-18T12:42:11.729Z,74.80
2023-05-18T12:46:13.633Z,78.30
2023-05-18T12:50:15.383Z,78.40
2023-05-18T12:54:27.436Z,74.70
2023-05-18T12:58:29.185Z,76.20
2023-05-18T13:02:36.811Z,73.90
2023-05-18T13:06:39.603Z,75.70
2023-05-18T13:10:44.121Z,79.70
2023-05-18T13:14:46.922Z,81.20
2023-05-18T13:18:56.307Z,84.30
2023-05-18T13:23:01.833Z,81.70
2023-05-18T13:27:03.606Z,82.60
2023-05-18T13:31:05.587Z,80.80
2023-05-18T13:35:07.639Z,83.10
2023-05-18T13:39:09.659Z,80.30
2023-05-18T13:43:13.775Z,81.90
2023-05-18T13:47:16.019Z,85.80
2023-05-18T13:51:18.017Z,81.50
2023-05-18T13:55:19.931Z,79.80
2023-05-18T13:59:22.443Z,80.20
2023-05-18T14:03:24.571Z,80.00
2023-05-18T14:07:27.116Z,78.10
2023-05-18T14:11:28.934Z,77.00
2023-05-18T14:15:30.756Z,77.20
2023-05-18T14:19:32.532Z,76.90
2023-05-18T14:23:34.251Z,73.90
2023-05-18T14:27:35.958Z,72.30
2023-05-18T14:31:37.801Z,76.60
2023-05-18T14:35:40.211Z,76.30
2023-05-18T14:39:42.001Z,77.80
2023-05-18T14:43:45.707Z,74.40
2023-05-18T14:47:48.047Z,73.20
2023-05-18T14:51:49.894Z,70.50
2023-05-18T14:55:55.114Z,72.80
2023-05-18T15:00:00.569Z,72.70
2023-05-18T15:04:02.473Z,79.70
2023-05-18T15:08:04.398Z,79.40
2023-05-18T15:12:06.415Z,78.40
2023-05-18T15:16:08.306Z,80.10
2023-05-18T15:20:11.125Z,81.00
2023-05-18T15:24:12.892Z,83.20
2023-05-18T15:28:14.707Z,83.40
2023-05-18T15:32:16.548Z,84.00
2023-05-18T15:36:18.618Z,83.60
2023-05-18T15:40:20.494Z,86.10
2023-05-18T15:44:22.256Z,88.90
2023-05-18T15:48:24.024Z,88.50
2023-05-18T15:52:25.758Z,89.70
2023-05-18T15:56:27.722Z,89.40
2023-05-18T16:00:30.321Z,88.50
2023-05-18T16:04:32.320Z,88.20
2023-05-18T16:08:34.072Z,88.40
2023-05-18T16:12:35.896Z,89.40
2023-05-18T16:16:37.750Z,90.00
2023-05-18T16:20:39.570Z,89.60
2023-05-18T16:24:41.387Z,91.30
2023-05-18T16:28:43.141Z,91.20
2023-05-18T16:32:45.019Z,90.80
2023-05-18T16:36:46.924Z,90.90
2023-05-18T16:40:48.719Z,91.40
2023-05-18T16:44:50.454Z,91.00
2023-05-18T16:48:52.187Z,92.10
2023-05-18T16:52:54.074Z,91.50
2023-05-18T16:56:56.469Z,91.80
2023-05-18T17:00:58.280Z,91.60
2023-05-18T17:05:00.216Z,92.60
2023-05-18T17:09:02.697Z,92.70
2023-05-18T17:13:06.646Z,92.60
2023-05-18T17:17:08.518Z,92.90
2023-05-18T17:21:10.420Z,92.50
2023-05-18T17:25:12.500Z,93.80
2023-05-18T17:29:17.108Z,93.60
2023-05-18T17:33:20.097Z,94.10
2023-05-18T17:37:21.939Z,94.50
2023-05-18T17:41:25.635Z,93.80
2023-05-18T17:45:27.458Z,93.50
2023-05-18T17:49:29.219Z,93.80
2023-05-18T17:53:31.079Z,94.90
2023-05-18T17:57:33.777Z,94.80
2023-05-18T18:01:35.955Z,96.00
2023-05-18T18:05:37.858Z,95.20
2023-05-18T18:09:39.690Z,95.00
2023-05-18T18:13:41.533Z,96.10
2023-05-18T18:17:43.338Z,97.10
2023-05-18T18:21:45.080Z,97.20
2023-05-18T18:25:46.876Z,98.20
2023-05-18T18:29:49.289Z,97.60
2023-05-18T18:33:51.262Z,98.40
2023-05-18T18:37:52.992Z,98.70
2023-05-18T18:41:54.825Z,99.80
2023-05-18T18:45:57.152Z,99.80
2023-05-18T18:49:59.196Z,99.90
2023-05-18T18:54:01.107Z,99.90
2023-05-18T18:58:02.948Z,99.90
2023-05-18T19:02:05.131Z,99.90
2023-05-18T19:06:07.113Z,99.90
2023-05-18T19:10:10.060Z,99.90
2023-05-18T19:14:11.802Z,99.90
2023-05-18T19:18:14.712Z,99.90
2023-05-18T19:22:16.524Z,99.90
2023-05-18T19:26:18.516Z,99.90
2023-05-18T19:30:21.524Z,99.90
2023-05-18T19:34:23.834Z,99.90
2023-05-18T19:38:25.596Z,99.90
2023-05-18T19:42:27.635Z,99.90
2023-05-18T19:46:29.612Z,99.90
2023-05-18T19:50:31.562Z,99.90
2023-05-18T19:54:34.036Z,99.90
2023-05-18T19:58:36.211Z,99.90
2023-05-18T20:02:37.998Z,99.90
2023-05-18T20:06:39.897Z,99.90
2023-05-18T20:10:41.775Z,99.90
2023-05-18T20:14:43.753Z,99.90
2023-05-18T20:18:45.796Z,99.90
2023-05-18T20:22:47.642Z,99.90
2023-05-18T20:26:50.531Z,99.90
2023-05-18T20:30:52.311Z,99.90
2023-05-18T20:34:54.100Z,99.90
2023-05-18T20:38:55.948Z,99.90
2023-05-18T20:42:58.940Z,99.90
2023-05-18T20:47:01.023Z,99.90
2023-05-18T20:51:02.890Z,99.90
2023-05-18T20:55:04.918Z,99.90
2023-05-18T20:59:06.634Z,99.90
2023-05-18T21:03:08.535Z,99.90
2023-05-18T21:07:10.370Z,99.90
2023-05-18T21:11:12.145Z,99.90
2023-05-18T21:15:13.886Z,99.90
2023-05-18T21:19:16.407Z,99.90
2023-05-18T21:23:18.304Z,99.90
2023-05-18T21:27:20.280Z,99.90
2023-05-18T21:31:22.073Z,99.90
2023-05-18T21:35:24.055Z,99.90
2023-05-18T21:39:25.847Z,99.90
2023-05-18T21:43:27.723Z,99.90
2023-05-18T21:47:29.500Z,99.90
2023-05-18T21:51:31.363Z,99.90
2023-05-18T21:55:33.496Z,99.90
2023-05-18T21:59:35.491Z,99.90
2023-05-18T22:03:37.864Z,99.90
2023-05-18T22:07:39.659Z,99.90
2023-05-18T22:11:41.389Z,99.90
2023-05-18T22:15:43.392Z,99.90
2023-05-18T22:19:45.549Z,99.90
2023-05-18T22:23:47.316Z,99.90
2023-05-18T22:27:49.070Z,99.90
2023-05-18T22:31:51.219Z,99.90
2023-05-18T22:35:53.396Z,99.90
2023-05-18T22:39:55.408Z,99.90
2023-05-18T22:43:57.170Z,99.90
2023-05-18T22:47:59.643Z,99.90
2023-05-18T22:52:05.091Z,99.90
2023-05-18T22:56:07.551Z,99.90
2023-05-18T23:00:11.396Z,99.90
2023-05-18T23:04:13.258Z,99.90
2023-05-18T23:08:16.160Z,99.90
2023-05-18T23:12:18.445Z,99.90
2023-05-18T23:16:20.490Z,99.90
2023-05-18T23:20:22.904Z,99.90
2023-05-18T23:24:24.669Z,99.90
2023-05-18T23:28:26.721Z,99.90
2023-05-18T23:32:28.991Z,99.90
2023-05-18T23:36:34.751Z,99.90
2023-05-18T23:40:36.704Z,99.90
2023-05-18T23:44:39.056Z,99.90
2023-05-18T23:48:41.103Z,99.90
2023-05-18T23:52:46.620Z,99.90
2023-05-18T23:56:50.360Z,99.90
